Airfield :
LOGIN :

Register | Disclaimer

   EN    FR    IT 

 










Legend :    VFR   Marginal VFR   IFR   Intensive IFR   Very Intensive IFR
Visi :
Ceiling :
>= 8 km
>= 3000ft
5 to 8 km
1000 to 3000 ft
1500m to 5 km
500 to 1000 ft
800 to 1500m
200 to 500 ft
< 800m
< 200 ft
Symbols :   Thunderstorms  Fog  Heavy snow  Heavy precipitations  Wind > 20 kt
SIGMETs :     Misc.  Thunderstorms  Icing  Turbulence  Mountain Waves  Volcanic Ashes






- Airport Elevation : 1188 ft


LKLN - Plzen Line

CURRENT METAR :
  • 140644Z AUTO VRB01KT 8000 FEW005 10/10 Q1019

EXPIRED METARs :
  • 140630Z AUTO 00000KT 3400 SCT004 SCT006 08/08 Q1019
  • 140623Z AUTO 00000KT 7000 BKN004 08/08 Q1019
  • 140600Z AUTO 00000KT 1400 BR FEW001 07/07 Q1018
  • 140551Z AUTO 00000KT 1400 BR FEW001 07/07 Q1018
  • 140530Z AUTO VRB01KT 5000 BR VV003 07/07 Q1018
  • 140517Z AUTO 00000KT 3000 VV005 07/07 Q1018
  • 140509Z AUTO 00000KT 6000 VV004 06/06 Q1018
  • 140413Z AUTO VRB01KT 7000 NCD 08/08 Q1018
  • 140400Z AUTO 34003KT 310V030 4700 BR NCD 09/09 Q1018

TAF N/A



MET'MAP, your aeronautical weather chart ! - Copyright ORBIFLY December 2007 - Disclaimer

ORBIFLY MET'MAP TEAM :

Programming & Development : Alexandra Zaïnal
Concept & Development : Baudouin d'Aumeries
Co-Development & Prog : Marc-Olivier Méhu
Technical & hardware support : Manuel Goepfert

Contact : metmap@orbifly.com




SOURCES & CREDITS :

   NOAA